sensor_id;sensor_type;location;lat;lon;timestamp;P1;durP1;ratioP1;P2;durP2;ratioP2
69890;SDS011;57170;43.964;21.262;2023-03-14T00:01:40;55.45;;;32.65;;
69890;SDS011;57170;43.964;21.262;2023-03-14T00:04:08;51.20;;;28.42;;
69890;SDS011;57170;43.964;21.262;2023-03-14T00:06:34;52.95;;;32.55;;
69890;SDS011;57170;43.964;21.262;2023-03-14T00:09:01;46.25;;;29.63;;
69890;SDS011;57170;43.964;21.262;2023-03-14T00:11:27;52.90;;;31.38;;
69890;SDS011;57170;43.964;21.262;2023-03-14T00:13:53;52.33;;;32.40;;
69890;SDS011;57170;43.964;21.262;2023-03-14T00:16:19;49.55;;;29.88;;
69890;SDS011;57170;43.964;21.262;2023-03-14T00:18:45;56.75;;;32.38;;
69890;SDS011;57170;43.964;21.262;2023-03-14T00:21:11;64.32;;;43.33;;
69890;SDS011;57170;43.964;21.262;2023-03-14T00:23:38;55.45;;;34.33;;
69890;SDS011;57170;43.964;21.262;2023-03-14T00:26:09;79.85;;;53.80;;
69890;SDS011;57170;43.964;21.262;2023-03-14T00:28:35;52.30;;;36.58;;
69890;SDS011;57170;43.964;21.262;2023-03-14T00:31:05;46.50;;;30.75;;
69890;SDS011;57170;43.964;21.262;2023-03-14T00:33:31;41.67;;;28.65;;
69890;SDS011;57170;43.964;21.262;2023-03-14T00:36:02;53.50;;;32.33;;
69890;SDS011;57170;43.964;21.262;2023-03-14T00:38:30;83.65;;;62.45;;
69890;SDS011;57170;43.964;21.262;2023-03-14T00:40:56;37.75;;;25.73;;
69890;SDS011;57170;43.964;21.262;2023-03-14T00:43:22;55.45;;;45.13;;
69890;SDS011;57170;43.964;21.262;2023-03-14T00:45:52;51.22;;;34.35;;
69890;SDS011;57170;43.964;21.262;2023-03-14T00:48:18;47.42;;;35.95;;
69890;SDS011;57170;43.964;21.262;2023-03-14T00:50:45;36.88;;;27.98;;
69890;SDS011;57170;43.964;21.262;2023-03-14T00:53:11;44.63;;;31.85;;
69890;SDS011;57170;43.964;21.262;2023-03-14T00:55:38;50.03;;;35.42;;
69890;SDS011;57170;43.964;21.262;2023-03-14T00:58:05;38.97;;;24.38;;
69890;SDS011;57170;43.964;21.262;2023-03-14T01:00:32;39.65;;;23.73;;
69890;SDS011;57170;43.964;21.262;2023-03-14T01:02:58;31.77;;;25.30;;
69890;SDS011;57170;43.964;21.262;2023-03-14T01:05:24;31.88;;;22.65;;
69890;SDS011;57170;43.964;21.262;2023-03-14T01:07:50;31.17;;;21.90;;
69890;SDS011;57170;43.964;21.262;2023-03-14T01:10:16;45.72;;;26.92;;
69890;SDS011;57170;43.964;21.262;2023-03-14T01:12:42;33.47;;;23.60;;
69890;SDS011;57170;43.964;21.262;2023-03-14T01:15:08;47.30;;;32.35;;
69890;SDS011;57170;43.964;21.262;2023-03-14T01:17:35;29.23;;;21.58;;
69890;SDS011;57170;43.964;21.262;2023-03-14T01:20:03;29.45;;;20.35;;
69890;SDS011;57170;43.964;21.262;2023-03-14T01:22:30;31.80;;;21.08;;
69890;SDS011;57170;43.964;21.262;2023-03-14T01:24:56;37.97;;;24.40;;
69890;SDS011;57170;43.964;21.262;2023-03-14T01:27:22;28.60;;;19.77;;
69890;SDS011;57170;43.964;21.262;2023-03-14T01:29:48;29.48;;;20.35;;
69890;SDS011;57170;43.964;21.262;2023-03-14T01:32:14;29.40;;;19.83;;
69890;SDS011;57170;43.964;21.262;2023-03-14T01:34:40;35.17;;;24.67;;
69890;SDS011;57170;43.964;21.262;2023-03-14T01:37:06;30.45;;;21.73;;
69890;SDS011;57170;43.964;21.262;2023-03-14T01:39:33;32.58;;;22.90;;
69890;SDS011;57170;43.964;21.262;2023-03-14T01:41:59;27.08;;;19.10;;
69890;SDS011;57170;43.964;21.262;2023-03-14T01:44:26;23.48;;;16.13;;
69890;SDS011;57170;43.964;21.262;2023-03-14T01:46:52;31.73;;;17.90;;
69890;SDS011;57170;43.964;21.262;2023-03-14T01:49:31;27.58;;;17.23;;
69890;SDS011;57170;43.964;21.262;2023-03-14T01:54:46;24.45;;;17.48;;
69890;SDS011;57170;43.964;21.262;2023-03-14T01:59:36;20.85;;;16.40;;
69890;SDS011;57170;43.964;21.262;2023-03-14T02:02:03;26.90;;;16.05;;
69890;SDS011;57170;43.964;21.262;2023-03-14T02:04:32;31.65;;;18.33;;
69890;SDS011;57170;43.964;21.262;2023-03-14T02:07:01;30.98;;;18.88;;
69890;SDS011;57170;43.964;21.262;2023-03-14T02:09:29;36.88;;;21.05;;
69890;SDS011;57170;43.964;21.262;2023-03-14T02:11:56;33.83;;;20.80;;
69890;SDS011;57170;43.964;21.262;2023-03-14T02:14:27;28.63;;;19.40;;
69890;SDS011;57170;43.964;21.262;2023-03-14T02:19:25;24.63;;;17.65;;
69890;SDS011;57170;43.964;21.262;2023-03-14T02:22:03;26.00;;;18.00;;
69890;SDS011;57170;43.964;21.262;2023-03-14T02:27:13;29.02;;;19.58;;
69890;SDS011;57170;43.964;21.262;2023-03-14T02:29:45;28.00;;;18.05;;
69890;SDS011;57170;43.964;21.262;2023-03-14T02:32:14;29.00;;;18.40;;
69890;SDS011;57170;43.964;21.262;2023-03-14T02:34:40;29.98;;;17.60;;
69890;SDS011;57170;43.964;21.262;2023-03-14T02:37:08;27.52;;;18.40;;
69890;SDS011;57170;43.964;21.262;2023-03-14T02:39:36;24.50;;;18.00;;
69890;SDS011;57170;43.964;21.262;2023-03-14T02:42:03;29.23;;;18.50;;
69890;SDS011;57170;43.964;21.262;2023-03-14T02:44:29;30.73;;;17.27;;
69890;SDS011;57170;43.964;21.262;2023-03-14T02:46:55;23.55;;;15.77;;
69890;SDS011;57170;43.964;21.262;2023-03-14T02:49:21;23.02;;;14.50;;
69890;SDS011;57170;43.964;21.262;2023-03-14T02:51:47;24.65;;;17.38;;
69890;SDS011;57170;43.964;21.262;2023-03-14T02:54:14;24.05;;;15.45;;
69890;SDS011;57170;43.964;21.262;2023-03-14T02:56:41;26.83;;;15.48;;
69890;SDS011;57170;43.964;21.262;2023-03-14T02:59:07;26.92;;;16.17;;
69890;SDS011;57170;43.964;21.262;2023-03-14T03:01:33;26.15;;;16.77;;
69890;SDS011;57170;43.964;21.262;2023-03-14T03:04:00;23.20;;;15.35;;
69890;SDS011;57170;43.964;21.262;2023-03-14T03:06:26;24.48;;;16.95;;
69890;SDS011;57170;43.964;21.262;2023-03-14T03:08:52;25.50;;;17.88;;
69890;SDS011;57170;43.964;21.262;2023-03-14T03:11:18;28.95;;;17.85;;
69890;SDS011;57170;43.964;21.262;2023-03-14T03:13:44;32.25;;;20.42;;
69890;SDS011;57170;43.964;21.262;2023-03-14T03:16:10;32.50;;;19.95;;
69890;SDS011;57170;43.964;21.262;2023-03-14T03:18:38;28.15;;;19.00;;
69890;SDS011;57170;43.964;21.262;2023-03-14T03:21:04;30.15;;;18.42;;
69890;SDS011;57170;43.964;21.262;2023-03-14T03:23:32;28.52;;;19.67;;
69890;SDS011;57170;43.964;21.262;2023-03-14T03:25:58;48.00;;;31.20;;
69890;SDS011;57170;43.964;21.262;2023-03-14T03:28:24;33.15;;;21.77;;
69890;SDS011;57170;43.964;21.262;2023-03-14T03:30:51;20.75;;;12.25;;
69890;SDS011;57170;43.964;21.262;2023-03-14T03:33:17;17.42;;;11.55;;
69890;SDS011;57170;43.964;21.262;2023-03-14T03:35:44;20.92;;;13.30;;
69890;SDS011;57170;43.964;21.262;2023-03-14T03:38:10;20.13;;;13.00;;
69890;SDS011;57170;43.964;21.262;2023-03-14T03:40:36;24.48;;;12.88;;
69890;SDS011;57170;43.964;21.262;2023-03-14T03:43:02;22.58;;;12.18;;
69890;SDS011;57170;43.964;21.262;2023-03-14T03:45:29;18.60;;;11.82;;
69890;SDS011;57170;43.964;21.262;2023-03-14T03:47:55;17.30;;;11.88;;
69890;SDS011;57170;43.964;21.262;2023-03-14T03:50:21;15.57;;;12.32;;
69890;SDS011;57170;43.964;21.262;2023-03-14T03:52:47;22.48;;;12.68;;
69890;SDS011;57170;43.964;21.262;2023-03-14T03:55:13;22.05;;;11.57;;
69890;SDS011;57170;43.964;21.262;2023-03-14T03:57:39;24.45;;;14.10;;
69890;SDS011;57170;43.964;21.262;2023-03-14T04:00:05;17.63;;;12.15;;
69890;SDS011;57170;43.964;21.262;2023-03-14T04:02:36;23.08;;;12.32;;
69890;SDS011;57170;43.964;21.262;2023-03-14T04:05:02;18.02;;;11.88;;
69890;SDS011;57170;43.964;21.262;2023-03-14T04:07:31;16.10;;;11.93;;
69890;SDS011;57170;43.964;21.262;2023-03-14T04:09:57;21.33;;;13.23;;
69890;SDS011;57170;43.964;21.262;2023-03-14T04:12:23;20.33;;;13.85;;
69890;SDS011;57170;43.964;21.262;2023-03-14T04:14:49;19.10;;;13.68;;
69890;SDS011;57170;43.964;21.262;2023-03-14T04:17:15;29.08;;;14.77;;
69890;SDS011;57170;43.964;21.262;2023-03-14T04:19:41;25.67;;;15.05;;
69890;SDS011;57170;43.964;21.262;2023-03-14T04:22:07;19.15;;;11.90;;
69890;SDS011;57170;43.964;21.262;2023-03-14T04:24:34;17.85;;;12.18;;
69890;SDS011;57170;43.964;21.262;2023-03-14T04:27:00;17.40;;;11.00;;
69890;SDS011;57170;43.964;21.262;2023-03-14T04:29:26;20.67;;;13.30;;
69890;SDS011;57170;43.964;21.262;2023-03-14T04:31:52;20.73;;;13.50;;
69890;SDS011;57170;43.964;21.262;2023-03-14T04:34:18;21.63;;;14.02;;
69890;SDS011;57170;43.964;21.262;2023-03-14T04:36:44;22.85;;;14.52;;
69890;SDS011;57170;43.964;21.262;2023-03-14T04:39:10;23.30;;;13.88;;
69890;SDS011;57170;43.964;21.262;2023-03-14T04:41:36;22.40;;;14.90;;
69890;SDS011;57170;43.964;21.262;2023-03-14T04:44:02;19.95;;;14.50;;
69890;SDS011;57170;43.964;21.262;2023-03-14T04:46:28;20.95;;;14.77;;
69890;SDS011;57170;43.964;21.262;2023-03-14T04:48:54;23.60;;;16.02;;
69890;SDS011;57170;43.964;21.262;2023-03-14T04:51:21;22.17;;;14.35;;
69890;SDS011;57170;43.964;21.262;2023-03-14T04:53:48;23.13;;;14.82;;
69890;SDS011;57170;43.964;21.262;2023-03-14T04:56:14;20.70;;;14.70;;
69890;SDS011;57170;43.964;21.262;2023-03-14T04:58:40;20.27;;;14.07;;
69890;SDS011;57170;43.964;21.262;2023-03-14T05:01:06;24.20;;;15.48;;
69890;SDS011;57170;43.964;21.262;2023-03-14T05:03:32;20.98;;;13.88;;
69890;SDS011;57170;43.964;21.262;2023-03-14T05:06:01;27.60;;;16.05;;
69890;SDS011;57170;43.964;21.262;2023-03-14T05:08:27;22.92;;;15.88;;
69890;SDS011;57170;43.964;21.262;2023-03-14T05:10:53;23.52;;;16.98;;
69890;SDS011;57170;43.964;21.262;2023-03-14T05:13:19;26.48;;;18.63;;
69890;SDS011;57170;43.964;21.262;2023-03-14T05:15:45;29.98;;;21.73;;
69890;SDS011;57170;43.964;21.262;2023-03-14T05:18:11;30.60;;;19.90;;
69890;SDS011;57170;43.964;21.262;2023-03-14T05:20:37;28.98;;;19.90;;
69890;SDS011;57170;43.964;21.262;2023-03-14T05:23:04;27.85;;;19.92;;
69890;SDS011;57170;43.964;21.262;2023-03-14T05:25:30;30.83;;;20.80;;
69890;SDS011;57170;43.964;21.262;2023-03-14T05:27:56;29.95;;;16.92;;
69890;SDS011;57170;43.964;21.262;2023-03-14T05:30:22;27.35;;;18.17;;
69890;SDS011;57170;43.964;21.262;2023-03-14T05:32:48;28.38;;;18.67;;
69890;SDS011;57170;43.964;21.262;2023-03-14T05:35:14;24.92;;;14.95;;
69890;SDS011;57170;43.964;21.262;2023-03-14T05:37:40;18.42;;;12.48;;
69890;SDS011;57170;43.964;21.262;2023-03-14T05:40:06;24.00;;;16.70;;
69890;SDS011;57170;43.964;21.262;2023-03-14T05:42:33;20.75;;;17.48;;
69890;SDS011;57170;43.964;21.262;2023-03-14T05:44:59;22.08;;;17.23;;
69890;SDS011;57170;43.964;21.262;2023-03-14T05:47:25;22.75;;;18.00;;
69890;SDS011;57170;43.964;21.262;2023-03-14T05:49:51;23.55;;;18.20;;
69890;SDS011;57170;43.964;21.262;2023-03-14T05:52:18;30.05;;;20.02;;
69890;SDS011;57170;43.964;21.262;2023-03-14T05:54:44;24.73;;;19.80;;
69890;SDS011;57170;43.964;21.262;2023-03-14T05:57:10;31.98;;;28.52;;
69890;SDS011;57170;43.964;21.262;2023-03-14T05:59:36;43.80;;;37.15;;
69890;SDS011;57170;43.964;21.262;2023-03-14T06:02:02;29.20;;;25.77;;
69890;SDS011;57170;43.964;21.262;2023-03-14T06:04:28;36.25;;;32.38;;
69890;SDS011;57170;43.964;21.262;2023-03-14T06:06:54;36.67;;;30.35;;
69890;SDS011;57170;43.964;21.262;2023-03-14T06:09:20;107.28;;;82.22;;
69890;SDS011;57170;43.964;21.262;2023-03-14T06:11:48;90.47;;;69.05;;
69890;SDS011;57170;43.964;21.262;2023-03-14T06:14:14;45.08;;;39.55;;
69890;SDS011;57170;43.964;21.262;2023-03-14T06:16:40;31.30;;;26.08;;
69890;SDS011;57170;43.964;21.262;2023-03-14T06:19:06;55.45;;;41.20;;
69890;SDS011;57170;43.964;21.262;2023-03-14T06:21:32;46.15;;;32.35;;
69890;SDS011;57170;43.964;21.262;2023-03-14T06:23:58;43.70;;;36.58;;
69890;SDS011;57170;43.964;21.262;2023-03-14T06:26:24;54.10;;;40.10;;
69890;SDS011;57170;43.964;21.262;2023-03-14T06:28:50;41.40;;;30.13;;
69890;SDS011;57170;43.964;21.262;2023-03-14T06:31:18;30.38;;;22.55;;
69890;SDS011;57170;43.964;21.262;2023-03-14T06:33:44;23.45;;;15.55;;
69890;SDS011;57170;43.964;21.262;2023-03-14T06:36:10;21.10;;;14.90;;
69890;SDS011;57170;43.964;21.262;2023-03-14T06:38:36;20.08;;;13.57;;
69890;SDS011;57170;43.964;21.262;2023-03-14T06:41:06;15.38;;;11.60;;
69890;SDS011;57170;43.964;21.262;2023-03-14T06:43:32;16.27;;;11.40;;
69890;SDS011;57170;43.964;21.262;2023-03-14T06:45:58;12.68;;;9.77;;
69890;SDS011;57170;43.964;21.262;2023-03-14T06:48:24;15.85;;;9.43;;
69890;SDS011;57170;43.964;21.262;2023-03-14T06:50:50;10.45;;;8.50;;
69890;SDS011;57170;43.964;21.262;2023-03-14T06:53:16;10.13;;;8.32;;
69890;SDS011;57170;43.964;21.262;2023-03-14T06:55:43;9.40;;;8.40;;
69890;SDS011;57170;43.964;21.262;2023-03-14T06:58:10;9.25;;;8.32;;
69890;SDS011;57170;43.964;21.262;2023-03-14T07:00:36;10.73;;;7.93;;
69890;SDS011;57170;43.964;21.262;2023-03-14T07:03:02;14.70;;;13.15;;
69890;SDS011;57170;43.964;21.262;2023-03-14T07:05:28;9.00;;;7.93;;
69890;SDS011;57170;43.964;21.262;2023-03-14T07:07:55;8.88;;;7.75;;
69890;SDS011;57170;43.964;21.262;2023-03-14T07:10:21;9.85;;;8.82;;
69890;SDS011;57170;43.964;21.262;2023-03-14T07:12:47;10.63;;;9.52;;
69890;SDS011;57170;43.964;21.262;2023-03-14T07:15:14;12.02;;;8.20;;
69890;SDS011;57170;43.964;21.262;2023-03-14T07:17:40;9.93;;;7.75;;
69890;SDS011;57170;43.964;21.262;2023-03-14T07:20:06;8.00;;;5.47;;
69890;SDS011;57170;43.964;21.262;2023-03-14T07:22:34;6.93;;;5.30;;
69890;SDS011;57170;43.964;21.262;2023-03-14T07:25:00;5.75;;;4.38;;
69890;SDS011;57170;43.964;21.262;2023-03-14T07:27:26;7.35;;;6.65;;
69890;SDS011;57170;43.964;21.262;2023-03-14T07:29:52;6.45;;;5.55;;
69890;SDS011;57170;43.964;21.262;2023-03-14T07:32:18;7.20;;;5.82;;
69890;SDS011;57170;43.964;21.262;2023-03-14T07:34:44;6.85;;;5.75;;
69890;SDS011;57170;43.964;21.262;2023-03-14T07:37:10;8.45;;;5.20;;
69890;SDS011;57170;43.964;21.262;2023-03-14T07:39:36;7.20;;;5.72;;
69890;SDS011;57170;43.964;21.262;2023-03-14T07:42:02;6.68;;;5.00;;
69890;SDS011;57170;43.964;21.262;2023-03-14T07:44:28;6.95;;;5.30;;
69890;SDS011;57170;43.964;21.262;2023-03-14T07:46:54;6.55;;;5.13;;
69890;SDS011;57170;43.964;21.262;2023-03-14T07:49:20;6.65;;;5.22;;
69890;SDS011;57170;43.964;21.262;2023-03-14T07:51:47;7.03;;;5.50;;
69890;SDS011;57170;43.964;21.262;2023-03-14T07:54:13;6.97;;;5.13;;
69890;SDS011;57170;43.964;21.262;2023-03-14T07:56:39;7.72;;;4.85;;
69890;SDS011;57170;43.964;21.262;2023-03-14T07:59:05;8.30;;;6.63;;
69890;SDS011;57170;43.964;21.262;2023-03-14T08:01:32;8.68;;;6.15;;
69890;SDS011;57170;43.964;21.262;2023-03-14T08:03:58;10.07;;;6.82;;
69890;SDS011;57170;43.964;21.262;2023-03-14T08:06:24;9.98;;;5.90;;
69890;SDS011;57170;43.964;21.262;2023-03-14T08:08:50;9.15;;;7.15;;
69890;SDS011;57170;43.964;21.262;2023-03-14T08:11:16;11.52;;;5.03;;
69890;SDS011;57170;43.964;21.262;2023-03-14T08:13:42;8.23;;;5.95;;
69890;SDS011;57170;43.964;21.262;2023-03-14T08:16:14;7.15;;;5.45;;
69890;SDS011;57170;43.964;21.262;2023-03-14T08:18:41;8.40;;;5.30;;
69890;SDS011;57170;43.964;21.262;2023-03-14T08:21:07;9.18;;;5.20;;
69890;SDS011;57170;43.964;21.262;2023-03-14T08:23:33;6.45;;;5.05;;
69890;SDS011;57170;43.964;21.262;2023-03-14T08:25:59;6.95;;;5.00;;
69890;SDS011;57170;43.964;21.262;2023-03-14T08:28:25;8.10;;;5.57;;
69890;SDS011;57170;43.964;21.262;2023-03-14T08:30:55;9.15;;;5.05;;
69890;SDS011;57170;43.964;21.262;2023-03-14T08:33:22;6.70;;;5.07;;
69890;SDS011;57170;43.964;21.262;2023-03-14T08:35:50;7.20;;;5.53;;
69890;SDS011;57170;43.964;21.262;2023-03-14T08:38:17;7.90;;;5.53;;
69890;SDS011;57170;43.964;21.262;2023-03-14T08:40:43;6.55;;;5.35;;
69890;SDS011;57170;43.964;21.262;2023-03-14T08:43:09;6.40;;;5.32;;
69890;SDS011;57170;43.964;21.262;2023-03-14T08:45:35;6.45;;;5.72;;
69890;SDS011;57170;43.964;21.262;2023-03-14T08:48:01;6.88;;;4.88;;
69890;SDS011;57170;43.964;21.262;2023-03-14T08:50:27;7.05;;;5.70;;
69890;SDS011;57170;43.964;21.262;2023-03-14T08:52:53;5.75;;;4.95;;
69890;SDS011;57170;43.964;21.262;2023-03-14T08:55:19;6.60;;;5.25;;
69890;SDS011;57170;43.964;21.262;2023-03-14T08:57:45;7.28;;;4.40;;
69890;SDS011;57170;43.964;21.262;2023-03-14T09:00:11;7.20;;;4.55;;
69890;SDS011;57170;43.964;21.262;2023-03-14T09:02:40;5.88;;;3.97;;
69890;SDS011;57170;43.964;21.262;2023-03-14T09:05:06;7.07;;;4.75;;
69890;SDS011;57170;43.964;21.262;2023-03-14T09:07:33;7.32;;;4.60;;
69890;SDS011;57170;43.964;21.262;2023-03-14T09:09:59;8.60;;;6.15;;
69890;SDS011;57170;43.964;21.262;2023-03-14T09:12:25;7.53;;;5.63;;
69890;SDS011;57170;43.964;21.262;2023-03-14T09:14:51;9.32;;;5.57;;
69890;SDS011;57170;43.964;21.262;2023-03-14T09:17:17;10.82;;;5.75;;
69890;SDS011;57170;43.964;21.262;2023-03-14T09:19:43;7.95;;;5.03;;
69890;SDS011;57170;43.964;21.262;2023-03-14T09:22:10;7.55;;;4.90;;
69890;SDS011;57170;43.964;21.262;2023-03-14T09:24:36;8.18;;;5.75;;
69890;SDS011;57170;43.964;21.262;2023-03-14T09:27:02;11.30;;;5.75;;
69890;SDS011;57170;43.964;21.262;2023-03-14T09:29:28;6.68;;;4.43;;
69890;SDS011;57170;43.964;21.262;2023-03-14T09:31:54;5.03;;;4.38;;
69890;SDS011;57170;43.964;21.262;2023-03-14T09:34:22;12.13;;;5.55;;
69890;SDS011;57170;43.964;21.262;2023-03-14T09:36:48;8.68;;;5.18;;
69890;SDS011;57170;43.964;21.262;2023-03-14T09:39:14;6.82;;;5.63;;
69890;SDS011;57170;43.964;21.262;2023-03-14T09:41:43;7.10;;;5.60;;
69890;SDS011;57170;43.964;21.262;2023-03-14T09:44:14;6.70;;;5.10;;
69890;SDS011;57170;43.964;21.262;2023-03-14T09:46:43;7.78;;;4.97;;
69890;SDS011;57170;43.964;21.262;2023-03-14T09:49:10;5.18;;;4.22;;
69890;SDS011;57170;43.964;21.262;2023-03-14T09:51:37;9.13;;;5.22;;
69890;SDS011;57170;43.964;21.262;2023-03-14T09:54:03;8.63;;;4.90;;
69890;SDS011;57170;43.964;21.262;2023-03-14T09:56:32;6.30;;;5.20;;
69890;SDS011;57170;43.964;21.262;2023-03-14T09:58:58;5.28;;;4.25;;
69890;SDS011;57170;43.964;21.262;2023-03-14T10:01:29;5.85;;;5.00;;
69890;SDS011;57170;43.964;21.262;2023-03-14T10:03:57;6.05;;;4.65;;
69890;SDS011;57170;43.964;21.262;2023-03-14T10:06:26;9.02;;;5.85;;
69890;SDS011;57170;43.964;21.262;2023-03-14T10:08:52;7.47;;;5.47;;
69890;SDS011;57170;43.964;21.262;2023-03-14T10:11:19;9.05;;;5.47;;
69890;SDS011;57170;43.964;21.262;2023-03-14T10:16:28;5.78;;;4.57;;
69890;SDS011;57170;43.964;21.262;2023-03-14T10:18:58;6.32;;;4.28;;
69890;SDS011;57170;43.964;21.262;2023-03-14T10:21:27;5.95;;;4.30;;
69890;SDS011;57170;43.964;21.262;2023-03-14T10:23:54;7.28;;;4.57;;
69890;SDS011;57170;43.964;21.262;2023-03-14T10:26:24;5.95;;;4.93;;
69890;SDS011;57170;43.964;21.262;2023-03-14T10:28:52;5.55;;;4.88;;
69890;SDS011;57170;43.964;21.262;2023-03-14T10:31:22;7.78;;;4.70;;
69890;SDS011;57170;43.964;21.262;2023-03-14T10:34:00;4.95;;;4.10;;
69890;SDS011;57170;43.964;21.262;2023-03-14T10:36:27;5.72;;;3.70;;
69890;SDS011;57170;43.964;21.262;2023-03-14T10:38:58;4.50;;;3.17;;
69890;SDS011;57170;43.964;21.262;2023-03-14T10:41:31;9.20;;;4.28;;
69890;SDS011;57170;43.964;21.262;2023-03-14T10:43:58;7.40;;;4.70;;
69890;SDS011;57170;43.964;21.262;2023-03-14T10:46:25;5.03;;;4.30;;
69890;SDS011;57170;43.964;21.262;2023-03-14T10:48:53;6.50;;;4.32;;
69890;SDS011;57170;43.964;21.262;2023-03-14T10:51:20;6.05;;;4.10;;
69890;SDS011;57170;43.964;21.262;2023-03-14T10:53:55;7.18;;;4.97;;
69890;SDS011;57170;43.964;21.262;2023-03-14T10:56:22;8.45;;;5.38;;
69890;SDS011;57170;43.964;21.262;2023-03-14T10:58:49;8.32;;;5.18;;
69890;SDS011;57170;43.964;21.262;2023-03-14T11:03:49;7.75;;;4.07;;
69890;SDS011;57170;43.964;21.262;2023-03-14T11:06:19;7.13;;;4.88;;
69890;SDS011;57170;43.964;21.262;2023-03-14T11:08:57;6.85;;;4.60;;
69890;SDS011;57170;43.964;21.262;2023-03-14T11:11:30;7.47;;;4.57;;
69890;SDS011;57170;43.964;21.262;2023-03-14T11:16:24;7.97;;;4.45;;
69890;SDS011;57170;43.964;21.262;2023-03-14T11:21:43;6.70;;;4.95;;
69890;SDS011;57170;43.964;21.262;2023-03-14T11:24:16;6.18;;;4.43;;
69890;SDS011;57170;43.964;21.262;2023-03-14T11:29:19;7.28;;;4.90;;
69890;SDS011;57170;43.964;21.262;2023-03-14T11:31:46;8.30;;;4.88;;
69890;SDS011;57170;43.964;21.262;2023-03-14T11:34:17;7.55;;;4.90;;
69890;SDS011;57170;43.964;21.262;2023-03-14T11:36:55;6.25;;;4.22;;
69890;SDS011;57170;43.964;21.262;2023-03-14T11:39:24;6.63;;;4.43;;
69890;SDS011;57170;43.964;21.262;2023-03-14T11:41:52;10.52;;;5.57;;
69890;SDS011;57170;43.964;21.262;2023-03-14T11:44:20;6.47;;;4.75;;
69890;SDS011;57170;43.964;21.262;2023-03-14T11:49:21;7.47;;;5.35;;
69890;SDS011;57170;43.964;21.262;2023-03-14T11:51:50;7.07;;;5.05;;
69890;SDS011;57170;43.964;21.262;2023-03-14T11:54:32;7.95;;;5.45;;
69890;SDS011;57170;43.964;21.262;2023-03-14T11:57:02;6.72;;;4.75;;
69890;SDS011;57170;43.964;21.262;2023-03-14T12:02:06;9.02;;;5.07;;
69890;SDS011;57170;43.964;21.262;2023-03-14T12:04:42;7.40;;;5.75;;
69890;SDS011;57170;43.964;21.262;2023-03-14T12:07:13;5.40;;;3.67;;
69890;SDS011;57170;43.964;21.262;2023-03-14T12:09:40;7.63;;;4.55;;
69890;SDS011;57170;43.964;21.262;2023-03-14T12:12:06;7.65;;;4.65;;
69890;SDS011;57170;43.964;21.262;2023-03-14T12:14:36;7.40;;;5.50;;
69890;SDS011;57170;43.964;21.262;2023-03-14T12:17:04;8.02;;;4.65;;
69890;SDS011;57170;43.964;21.262;2023-03-14T12:19:32;8.60;;;5.30;;
69890;SDS011;57170;43.964;21.262;2023-03-14T12:22:07;6.80;;;3.83;;
69890;SDS011;57170;43.964;21.262;2023-03-14T12:24:36;7.43;;;4.88;;
69890;SDS011;57170;43.964;21.262;2023-03-14T12:27:04;6.68;;;4.38;;
69890;SDS011;57170;43.964;21.262;2023-03-14T12:29:30;6.82;;;4.70;;
69890;SDS011;57170;43.964;21.262;2023-03-14T12:34:27;7.03;;;4.50;;
69890;SDS011;57170;43.964;21.262;2023-03-14T12:36:59;9.15;;;6.15;;
69890;SDS011;57170;43.964;21.262;2023-03-14T12:42:12;10.90;;;7.30;;
69890;SDS011;57170;43.964;21.262;2023-03-14T12:44:42;12.10;;;9.45;;
69890;SDS011;57170;43.964;21.262;2023-03-14T12:49:53;13.00;;;7.78;;
69890;SDS011;57170;43.964;21.262;2023-03-14T12:52:33;13.38;;;9.55;;
69890;SDS011;57170;43.964;21.262;2023-03-14T12:55:05;15.98;;;9.43;;
69890;SDS011;57170;43.964;21.262;2023-03-14T12:57:39;10.77;;;8.60;;
69890;SDS011;57170;43.964;21.262;2023-03-14T13:00:18;10.60;;;7.95;;
69890;SDS011;57170;43.964;21.262;2023-03-14T13:02:46;11.98;;;8.48;;
69890;SDS011;57170;43.964;21.262;2023-03-14T13:05:23;12.38;;;8.60;;
69890;SDS011;57170;43.964;21.262;2023-03-14T13:10:26;13.68;;;8.55;;
69890;SDS011;57170;43.964;21.262;2023-03-14T13:12:56;11.85;;;7.95;;
69890;SDS011;57170;43.964;21.262;2023-03-14T13:15:24;11.25;;;8.57;;
69890;SDS011;57170;43.964;21.262;2023-03-14T13:17:52;8.52;;;7.28;;
69890;SDS011;57170;43.964;21.262;2023-03-14T13:20:31;12.32;;;8.60;;
69890;SDS011;57170;43.964;21.262;2023-03-14T13:22:57;12.15;;;8.15;;
69890;SDS011;57170;43.964;21.262;2023-03-14T13:25:23;11.55;;;7.85;;
69890;SDS011;57170;43.964;21.262;2023-03-14T13:27:51;13.43;;;9.63;;
69890;SDS011;57170;43.964;21.262;2023-03-14T13:30:23;11.82;;;8.50;;
69890;SDS011;57170;43.964;21.262;2023-03-14T13:32:50;13.40;;;8.13;;
69890;SDS011;57170;43.964;21.262;2023-03-14T13:35:18;13.63;;;9.68;;
69890;SDS011;57170;43.964;21.262;2023-03-14T13:37:44;13.38;;;8.98;;
69890;SDS011;57170;43.964;21.262;2023-03-14T13:40:20;12.02;;;8.65;;
69890;SDS011;57170;43.964;21.262;2023-03-14T13:42:47;12.13;;;8.68;;
69890;SDS011;57170;43.964;21.262;2023-03-14T13:45:13;11.82;;;8.85;;
69890;SDS011;57170;43.964;21.262;2023-03-14T13:47:39;12.65;;;10.35;;
69890;SDS011;57170;43.964;21.262;2023-03-14T13:50:12;13.57;;;9.48;;
69890;SDS011;57170;43.964;21.262;2023-03-14T13:52:38;12.65;;;10.48;;
69890;SDS011;57170;43.964;21.262;2023-03-14T13:55:05;13.35;;;9.98;;
69890;SDS011;57170;43.964;21.262;2023-03-14T14:00:17;11.25;;;9.52;;
69890;SDS011;57170;43.964;21.262;2023-03-14T14:02:43;15.27;;;10.55;;
69890;SDS011;57170;43.964;21.262;2023-03-14T14:05:13;11.57;;;9.52;;
69890;SDS011;57170;43.964;21.262;2023-03-14T14:07:39;13.77;;;8.48;;
69890;SDS011;57170;43.964;21.262;2023-03-14T14:10:08;9.93;;;7.95;;
69890;SDS011;57170;43.964;21.262;2023-03-14T14:13:21;14.15;;;7.40;;
69890;SDS011;57170;43.964;21.262;2023-03-14T14:15:26;14.18;;;8.38;;
69890;SDS011;57170;43.964;21.262;2023-03-14T14:17:53;12.45;;;9.40;;
69890;SDS011;57170;43.964;21.262;2023-03-14T14:20:26;12.93;;;9.93;;
69890;SDS011;57170;43.964;21.262;2023-03-14T14:22:57;15.77;;;10.07;;
69890;SDS011;57170;43.964;21.262;2023-03-14T14:25:23;11.13;;;9.05;;
69890;SDS011;57170;43.964;21.262;2023-03-14T14:27:49;12.35;;;8.55;;
69890;SDS011;57170;43.964;21.262;2023-03-14T14:32:45;15.00;;;9.60;;
69890;SDS011;57170;43.964;21.262;2023-03-14T14:35:25;10.35;;;7.82;;
69890;SDS011;57170;43.964;21.262;2023-03-14T14:37:51;10.50;;;8.55;;
69890;SDS011;57170;43.964;21.262;2023-03-14T14:40:21;14.18;;;9.20;;
69890;SDS011;57170;43.964;21.262;2023-03-14T14:42:48;13.95;;;8.52;;
69890;SDS011;57170;43.964;21.262;2023-03-14T14:45:24;11.45;;;7.88;;
69890;SDS011;57170;43.964;21.262;2023-03-14T14:50:29;10.35;;;7.85;;
69890;SDS011;57170;43.964;21.262;2023-03-14T14:52:56;12.82;;;7.85;;
69890;SDS011;57170;43.964;21.262;2023-03-14T14:55:28;9.60;;;7.35;;
69890;SDS011;57170;43.964;21.262;2023-03-14T14:57:54;11.40;;;8.10;;
69890;SDS011;57170;43.964;21.262;2023-03-14T15:00:24;14.20;;;7.85;;
69890;SDS011;57170;43.964;21.262;2023-03-14T15:03:12;12.98;;;8.15;;
69890;SDS011;57170;43.964;21.262;2023-03-14T15:05:38;20.48;;;9.18;;
69890;SDS011;57170;43.964;21.262;2023-03-14T15:08:08;14.45;;;10.63;;
69890;SDS011;57170;43.964;21.262;2023-03-14T15:10:35;14.65;;;11.43;;